sensor_id;sensor_type;location;lat;lon;timestamp;P1;durP1;ratioP1;P2;durP2;ratioP2
3700;SDS011;1866;48.374;10.766;2022-11-20T00:01:17;112.63;;;19.17;;
3700;SDS011;1866;48.374;10.766;2022-11-20T00:03:45;111.60;;;19.00;;
3700;SDS011;1866;48.374;10.766;2022-11-20T00:06:13;110.10;;;18.50;;
3700;SDS011;1866;48.374;10.766;2022-11-20T00:08:41;109.47;;;18.80;;
3700;SDS011;1866;48.374;10.766;2022-11-20T00:11:09;109.90;;;18.17;;
3700;SDS011;1866;48.374;10.766;2022-11-20T00:13:38;111.87;;;18.60;;
3700;SDS011;1866;48.374;10.766;2022-11-20T00:16:06;109.80;;;18.47;;
3700;SDS011;1866;48.374;10.766;2022-11-20T00:18:35;112.00;;;18.80;;
3700;SDS011;1866;48.374;10.766;2022-11-20T00:21:02;110.67;;;18.70;;
3700;SDS011;1866;48.374;10.766;2022-11-20T00:23:32;110.27;;;18.37;;
3700;SDS011;1866;48.374;10.766;2022-11-20T00:26:01;111.57;;;19.27;;
3700;SDS011;1866;48.374;10.766;2022-11-20T00:28:29;110.77;;;18.67;;
3700;SDS011;1866;48.374;10.766;2022-11-20T00:31:01;111.50;;;18.63;;
3700;SDS011;1866;48.374;10.766;2022-11-20T00:33:30;110.30;;;18.90;;
3700;SDS011;1866;48.374;10.766;2022-11-20T00:36:00;109.83;;;19.03;;
3700;SDS011;1866;48.374;10.766;2022-11-20T00:38:28;110.77;;;19.10;;
3700;SDS011;1866;48.374;10.766;2022-11-20T00:40:56;110.00;;;18.60;;
3700;SDS011;1866;48.374;10.766;2022-11-20T00:43:23;111.13;;;18.47;;
3700;SDS011;1866;48.374;10.766;2022-11-20T00:45:50;109.30;;;18.60;;
3700;SDS011;1866;48.374;10.766;2022-11-20T00:48:23;111.33;;;18.57;;
3700;SDS011;1866;48.374;10.766;2022-11-20T00:50:51;109.43;;;18.47;;
3700;SDS011;1866;48.374;10.766;2022-11-20T00:53:20;111.30;;;18.70;;
3700;SDS011;1866;48.374;10.766;2022-11-20T00:55:57;110.83;;;19.20;;
3700;SDS011;1866;48.374;10.766;2022-11-20T00:58:29;111.07;;;18.37;;
3700;SDS011;1866;48.374;10.766;2022-11-20T01:01:01;109.87;;;18.37;;
3700;SDS011;1866;48.374;10.766;2022-11-20T01:03:32;110.97;;;18.60;;
3700;SDS011;1866;48.374;10.766;2022-11-20T01:05:59;109.77;;;18.50;;
3700;SDS011;1866;48.374;10.766;2022-11-20T01:08:31;110.13;;;19.20;;
3700;SDS011;1866;48.374;10.766;2022-11-20T01:11:00;111.50;;;18.70;;
3700;SDS011;1866;48.374;10.766;2022-11-20T01:13:27;109.57;;;18.37;;
3700;SDS011;1866;48.374;10.766;2022-11-20T01:16:03;108.90;;;18.37;;
3700;SDS011;1866;48.374;10.766;2022-11-20T01:18:33;111.37;;;18.50;;
3700;SDS011;1866;48.374;10.766;2022-11-20T01:21:01;110.37;;;18.80;;
3700;SDS011;1866;48.374;10.766;2022-11-20T01:23:30;112.30;;;18.63;;
3700;SDS011;1866;48.374;10.766;2022-11-20T01:25:59;109.40;;;18.30;;
3700;SDS011;1866;48.374;10.766;2022-11-20T01:28:26;110.77;;;18.77;;
3700;SDS011;1866;48.374;10.766;2022-11-20T01:30:54;109.50;;;18.23;;
3700;SDS011;1866;48.374;10.766;2022-11-20T01:33:21;110.67;;;18.87;;
3700;SDS011;1866;48.374;10.766;2022-11-20T01:35:49;110.27;;;18.50;;
3700;SDS011;1866;48.374;10.766;2022-11-20T01:38:16;110.97;;;18.83;;
3700;SDS011;1866;48.374;10.766;2022-11-20T01:40:43;112.30;;;19.80;;
3700;SDS011;1866;48.374;10.766;2022-11-20T01:43:12;111.37;;;19.00;;
3700;SDS011;1866;48.374;10.766;2022-11-20T01:45:58;111.07;;;19.00;;
3700;SDS011;1866;48.374;10.766;2022-11-20T01:48:32;112.00;;;19.30;;
3700;SDS011;1866;48.374;10.766;2022-11-20T01:51:04;110.63;;;18.77;;
3700;SDS011;1866;48.374;10.766;2022-11-20T01:53:36;109.47;;;19.03;;
3700;SDS011;1866;48.374;10.766;2022-11-20T01:56:05;111.10;;;19.50;;
3700;SDS011;1866;48.374;10.766;2022-11-20T01:58:35;111.10;;;19.10;;
3700;SDS011;1866;48.374;10.766;2022-11-20T02:01:06;110.60;;;19.17;;
3700;SDS011;1866;48.374;10.766;2022-11-20T02:03:32;110.83;;;18.90;;
3700;SDS011;1866;48.374;10.766;2022-11-20T02:06:01;109.87;;;18.77;;
3700;SDS011;1866;48.374;10.766;2022-11-20T02:08:35;112.40;;;19.00;;
3700;SDS011;1866;48.374;10.766;2022-11-20T02:11:03;111.47;;;19.13;;
3700;SDS011;1866;48.374;10.766;2022-11-20T02:13:31;111.73;;;18.50;;
3700;SDS011;1866;48.374;10.766;2022-11-20T02:16:12;109.60;;;18.57;;
3700;SDS011;1866;48.374;10.766;2022-11-20T02:18:42;109.97;;;18.40;;
3700;SDS011;1866;48.374;10.766;2022-11-20T02:21:15;111.00;;;18.50;;
3700;SDS011;1866;48.374;10.766;2022-11-20T02:26:41;110.37;;;17.83;;
3700;SDS011;1866;48.374;10.766;2022-11-20T02:29:13;109.83;;;18.47;;
3700;SDS011;1866;48.374;10.766;2022-11-20T02:31:42;110.37;;;18.67;;
3700;SDS011;1866;48.374;10.766;2022-11-20T02:34:10;108.83;;;18.00;;
3700;SDS011;1866;48.374;10.766;2022-11-20T02:36:38;110.63;;;18.03;;
3700;SDS011;1866;48.374;10.766;2022-11-20T02:39:06;109.17;;;17.63;;
3700;SDS011;1866;48.374;10.766;2022-11-20T02:41:36;110.30;;;17.60;;
3700;SDS011;1866;48.374;10.766;2022-11-20T02:44:04;107.50;;;17.70;;
3700;SDS011;1866;48.374;10.766;2022-11-20T02:46:32;110.73;;;18.30;;
3700;SDS011;1866;48.374;10.766;2022-11-20T02:49:00;110.30;;;18.60;;
3700;SDS011;1866;48.374;10.766;2022-11-20T02:51:27;111.57;;;18.50;;
3700;SDS011;1866;48.374;10.766;2022-11-20T02:53:54;108.90;;;18.27;;
3700;SDS011;1866;48.374;10.766;2022-11-20T02:56:21;109.17;;;18.27;;
3700;SDS011;1866;48.374;10.766;2022-11-20T02:58:50;110.60;;;18.53;;
3700;SDS011;1866;48.374;10.766;2022-11-20T03:01:17;109.77;;;18.10;;
3700;SDS011;1866;48.374;10.766;2022-11-20T03:03:43;113.50;;;18.73;;
3700;SDS011;1866;48.374;10.766;2022-11-20T03:06:10;110.40;;;18.50;;
3700;SDS011;1866;48.374;10.766;2022-11-20T03:08:37;110.50;;;18.53;;
3700;SDS011;1866;48.374;10.766;2022-11-20T03:11:05;109.30;;;18.23;;
3700;SDS011;1866;48.374;10.766;2022-11-20T03:13:33;111.57;;;18.90;;
3700;SDS011;1866;48.374;10.766;2022-11-20T03:16:06;110.80;;;18.57;;
3700;SDS011;1866;48.374;10.766;2022-11-20T03:18:37;110.40;;;18.57;;
3700;SDS011;1866;48.374;10.766;2022-11-20T03:21:04;107.83;;;17.90;;
3700;SDS011;1866;48.374;10.766;2022-11-20T03:23:31;110.27;;;18.37;;
3700;SDS011;1866;48.374;10.766;2022-11-20T03:26:12;109.67;;;17.97;;
3700;SDS011;1866;48.374;10.766;2022-11-20T03:28:40;110.90;;;18.10;;
3700;SDS011;1866;48.374;10.766;2022-11-20T03:31:10;108.27;;;17.70;;
3700;SDS011;1866;48.374;10.766;2022-11-20T03:33:38;111.50;;;18.17;;
3700;SDS011;1866;48.374;10.766;2022-11-20T03:36:06;110.07;;;17.90;;
3700;SDS011;1866;48.374;10.766;2022-11-20T03:38:35;109.17;;;17.23;;
3700;SDS011;1866;48.374;10.766;2022-11-20T03:41:04;109.97;;;17.90;;
3700;SDS011;1866;48.374;10.766;2022-11-20T03:43:33;109.27;;;17.27;;
3700;SDS011;1866;48.374;10.766;2022-11-20T03:46:00;110.90;;;17.73;;
3700;SDS011;1866;48.374;10.766;2022-11-20T03:48:28;109.43;;;17.20;;
3700;SDS011;1866;48.374;10.766;2022-11-20T03:51:06;108.43;;;16.87;;
3700;SDS011;1866;48.374;10.766;2022-11-20T03:53:33;107.67;;;16.57;;
3700;SDS011;1866;48.374;10.766;2022-11-20T03:56:00;109.90;;;17.37;;
3700;SDS011;1866;48.374;10.766;2022-11-20T03:58:28;108.83;;;17.03;;
3700;SDS011;1866;48.374;10.766;2022-11-20T04:00:55;108.57;;;17.57;;
3700;SDS011;1866;48.374;10.766;2022-11-20T04:03:21;111.50;;;17.80;;
3700;SDS011;1866;48.374;10.766;2022-11-20T04:05:50;108.80;;;17.30;;
3700;SDS011;1866;48.374;10.766;2022-11-20T04:08:16;108.63;;;17.43;;
3700;SDS011;1866;48.374;10.766;2022-11-20T04:10:43;109.63;;;17.70;;
3700;SDS011;1866;48.374;10.766;2022-11-20T04:13:10;108.47;;;17.43;;
3700;SDS011;1866;48.374;10.766;2022-11-20T04:15:37;108.83;;;17.17;;
3700;SDS011;1866;48.374;10.766;2022-11-20T04:18:04;108.67;;;17.30;;
3700;SDS011;1866;48.374;10.766;2022-11-20T04:20:31;110.70;;;17.53;;
3700;SDS011;1866;48.374;10.766;2022-11-20T04:22:59;109.43;;;17.90;;
3700;SDS011;1866;48.374;10.766;2022-11-20T04:25:26;109.10;;;17.50;;
3700;SDS011;1866;48.374;10.766;2022-11-20T04:27:52;109.63;;;17.60;;
3700;SDS011;1866;48.374;10.766;2022-11-20T04:30:19;109.97;;;18.47;;
3700;SDS011;1866;48.374;10.766;2022-11-20T04:32:46;109.73;;;18.00;;
3700;SDS011;1866;48.374;10.766;2022-11-20T04:35:13;109.57;;;17.83;;
3700;SDS011;1866;48.374;10.766;2022-11-20T04:37:40;110.50;;;17.50;;
3700;SDS011;1866;48.374;10.766;2022-11-20T04:40:09;110.50;;;18.00;;
3700;SDS011;1866;48.374;10.766;2022-11-20T04:42:36;108.77;;;17.57;;
3700;SDS011;1866;48.374;10.766;2022-11-20T04:45:04;109.00;;;17.37;;
3700;SDS011;1866;48.374;10.766;2022-11-20T04:47:31;109.10;;;17.27;;
3700;SDS011;1866;48.374;10.766;2022-11-20T04:49:59;108.70;;;17.90;;
3700;SDS011;1866;48.374;10.766;2022-11-20T04:52:26;110.17;;;17.67;;
3700;SDS011;1866;48.374;10.766;2022-11-20T04:54:53;110.77;;;17.77;;
3700;SDS011;1866;48.374;10.766;2022-11-20T04:57:21;108.40;;;17.47;;
3700;SDS011;1866;48.374;10.766;2022-11-20T04:59:48;111.53;;;17.77;;
3700;SDS011;1866;48.374;10.766;2022-11-20T05:02:15;108.90;;;17.70;;
3700;SDS011;1866;48.374;10.766;2022-11-20T05:04:42;107.87;;;17.40;;
3700;SDS011;1866;48.374;10.766;2022-11-20T05:07:09;109.37;;;17.27;;
3700;SDS011;1866;48.374;10.766;2022-11-20T05:09:36;110.07;;;17.43;;
3700;SDS011;1866;48.374;10.766;2022-11-20T05:12:03;108.10;;;17.23;;
3700;SDS011;1866;48.374;10.766;2022-11-20T05:14:31;108.37;;;17.10;;
3700;SDS011;1866;48.374;10.766;2022-11-20T05:16:58;109.67;;;17.17;;
3700;SDS011;1866;48.374;10.766;2022-11-20T05:19:25;108.87;;;17.00;;
3700;SDS011;1866;48.374;10.766;2022-11-20T05:21:52;108.77;;;17.00;;
3700;SDS011;1866;48.374;10.766;2022-11-20T05:24:19;107.73;;;16.77;;
3700;SDS011;1866;48.374;10.766;2022-11-20T05:26:47;107.70;;;16.47;;
3700;SDS011;1866;48.374;10.766;2022-11-20T05:29:14;108.60;;;16.67;;
3700;SDS011;1866;48.374;10.766;2022-11-20T05:31:42;107.50;;;17.03;;
3700;SDS011;1866;48.374;10.766;2022-11-20T05:34:09;108.10;;;17.10;;
3700;SDS011;1866;48.374;10.766;2022-11-20T05:36:36;108.27;;;16.97;;
3700;SDS011;1866;48.374;10.766;2022-11-20T05:39:03;108.37;;;16.87;;
3700;SDS011;1866;48.374;10.766;2022-11-20T05:41:32;109.30;;;17.33;;
3700;SDS011;1866;48.374;10.766;2022-11-20T05:43:59;108.40;;;17.17;;
3700;SDS011;1866;48.374;10.766;2022-11-20T05:46:26;109.13;;;17.50;;
3700;SDS011;1866;48.374;10.766;2022-11-20T05:48:55;108.83;;;17.50;;
3700;SDS011;1866;48.374;10.766;2022-11-20T05:51:23;108.37;;;16.97;;
3700;SDS011;1866;48.374;10.766;2022-11-20T05:53:50;108.67;;;17.10;;
3700;SDS011;1866;48.374;10.766;2022-11-20T05:56:18;108.03;;;16.30;;
3700;SDS011;1866;48.374;10.766;2022-11-20T05:58:46;109.77;;;17.13;;
3700;SDS011;1866;48.374;10.766;2022-11-20T06:01:16;107.47;;;16.27;;
3700;SDS011;1866;48.374;10.766;2022-11-20T06:03:43;107.63;;;16.33;;
3700;SDS011;1866;48.374;10.766;2022-11-20T06:06:14;108.23;;;16.40;;
3700;SDS011;1866;48.374;10.766;2022-11-20T06:08:41;107.80;;;16.20;;
3700;SDS011;1866;48.374;10.766;2022-11-20T06:11:09;108.60;;;16.27;;
3700;SDS011;1866;48.374;10.766;2022-11-20T06:13:37;106.53;;;15.30;;
3700;SDS011;1866;48.374;10.766;2022-11-20T06:16:05;107.80;;;15.73;;
3700;SDS011;1866;48.374;10.766;2022-11-20T06:18:32;106.93;;;15.47;;
3700;SDS011;1866;48.374;10.766;2022-11-20T06:21:00;107.20;;;15.90;;
3700;SDS011;1866;48.374;10.766;2022-11-20T06:23:30;107.23;;;15.80;;
3700;SDS011;1866;48.374;10.766;2022-11-20T06:25:58;106.87;;;15.60;;
3700;SDS011;1866;48.374;10.766;2022-11-20T06:28:28;105.90;;;14.67;;
3700;SDS011;1866;48.374;10.766;2022-11-20T06:30:56;107.00;;;15.30;;
3700;SDS011;1866;48.374;10.766;2022-11-20T06:33:24;106.20;;;14.60;;
3700;SDS011;1866;48.374;10.766;2022-11-20T06:35:51;106.50;;;14.60;;
3700;SDS011;1866;48.374;10.766;2022-11-20T06:38:18;107.23;;;15.10;;
3700;SDS011;1866;48.374;10.766;2022-11-20T06:40:47;106.00;;;14.60;;
3700;SDS011;1866;48.374;10.766;2022-11-20T06:43:14;108.57;;;15.30;;
3700;SDS011;1866;48.374;10.766;2022-11-20T06:45:41;106.27;;;14.77;;
3700;SDS011;1866;48.374;10.766;2022-11-20T06:48:10;107.70;;;15.87;;
3700;SDS011;1866;48.374;10.766;2022-11-20T06:50:37;105.60;;;14.80;;
3700;SDS011;1866;48.374;10.766;2022-11-20T06:53:04;106.27;;;15.10;;
3700;SDS011;1866;48.374;10.766;2022-11-20T06:55:32;106.10;;;14.77;;
3700;SDS011;1866;48.374;10.766;2022-11-20T06:58:01;107.10;;;15.00;;
3700;SDS011;1866;48.374;10.766;2022-11-20T07:00:28;105.87;;;14.50;;
3700;SDS011;1866;48.374;10.766;2022-11-20T07:02:55;107.30;;;14.57;;
3700;SDS011;1866;48.374;10.766;2022-11-20T07:05:25;106.67;;;14.80;;
3700;SDS011;1866;48.374;10.766;2022-11-20T07:07:52;112.30;;;17.13;;
3700;SDS011;1866;48.374;10.766;2022-11-20T07:10:23;107.10;;;14.80;;
3700;SDS011;1866;48.374;10.766;2022-11-20T07:12:52;108.97;;;14.40;;
3700;SDS011;1866;48.374;10.766;2022-11-20T07:15:22;105.70;;;13.77;;
3700;SDS011;1866;48.374;10.766;2022-11-20T07:17:50;107.13;;;14.07;;
3700;SDS011;1866;48.374;10.766;2022-11-20T07:20:18;105.93;;;13.87;;
3700;SDS011;1866;48.374;10.766;2022-11-20T07:22:46;106.40;;;13.77;;
3700;SDS011;1866;48.374;10.766;2022-11-20T07:25:15;106.10;;;13.10;;
3700;SDS011;1866;48.374;10.766;2022-11-20T07:27:42;107.37;;;13.67;;
3700;SDS011;1866;48.374;10.766;2022-11-20T07:30:09;106.40;;;13.73;;
3700;SDS011;1866;48.374;10.766;2022-11-20T07:32:38;104.47;;;13.00;;
3700;SDS011;1866;48.374;10.766;2022-11-20T07:35:05;105.00;;;12.47;;
3700;SDS011;1866;48.374;10.766;2022-11-20T07:37:33;104.87;;;12.80;;
3700;SDS011;1866;48.374;10.766;2022-11-20T07:40:01;104.07;;;12.40;;
3700;SDS011;1866;48.374;10.766;2022-11-20T07:42:28;106.40;;;13.47;;
3700;SDS011;1866;48.374;10.766;2022-11-20T07:44:55;110.50;;;12.27;;
3700;SDS011;1866;48.374;10.766;2022-11-20T07:47:22;106.07;;;13.20;;
3700;SDS011;1866;48.374;10.766;2022-11-20T07:49:51;103.90;;;12.57;;
3700;SDS011;1866;48.374;10.766;2022-11-20T07:52:18;106.27;;;12.37;;
3700;SDS011;1866;48.374;10.766;2022-11-20T07:54:45;105.87;;;12.53;;
3700;SDS011;1866;48.374;10.766;2022-11-20T07:57:12;104.57;;;11.73;;
3700;SDS011;1866;48.374;10.766;2022-11-20T07:59:39;103.50;;;12.23;;
3700;SDS011;1866;48.374;10.766;2022-11-20T08:02:09;104.27;;;12.13;;
3700;SDS011;1866;48.374;10.766;2022-11-20T08:04:37;105.63;;;12.60;;
3700;SDS011;1866;48.374;10.766;2022-11-20T08:07:07;104.97;;;12.03;;
3700;SDS011;1866;48.374;10.766;2022-11-20T08:09:38;117.53;;;16.60;;
3700;SDS011;1866;48.374;10.766;2022-11-20T08:12:07;105.47;;;12.53;;
3700;SDS011;1866;48.374;10.766;2022-11-20T08:14:51;105.27;;;12.17;;
3700;SDS011;1866;48.374;10.766;2022-11-20T08:17:20;103.37;;;11.27;;
3700;SDS011;1866;48.374;10.766;2022-11-20T08:19:48;104.30;;;11.77;;
3700;SDS011;1866;48.374;10.766;2022-11-20T08:22:17;104.20;;;11.80;;
3700;SDS011;1866;48.374;10.766;2022-11-20T08:24:45;105.37;;;12.23;;
3700;SDS011;1866;48.374;10.766;2022-11-20T08:27:13;104.40;;;11.90;;
3700;SDS011;1866;48.374;10.766;2022-11-20T08:29:42;104.43;;;11.83;;
3700;SDS011;1866;48.374;10.766;2022-11-20T08:32:10;104.43;;;11.87;;
3700;SDS011;1866;48.374;10.766;2022-11-20T08:34:37;103.73;;;11.30;;
3700;SDS011;1866;48.374;10.766;2022-11-20T08:37:03;105.37;;;11.50;;
3700;SDS011;1866;48.374;10.766;2022-11-20T08:39:32;106.27;;;11.80;;
3700;SDS011;1866;48.374;10.766;2022-11-20T08:41:59;105.17;;;12.43;;
3700;SDS011;1866;48.374;10.766;2022-11-20T08:44:28;110.30;;;13.30;;
3700;SDS011;1866;48.374;10.766;2022-11-20T08:46:55;108.87;;;13.13;;
3700;SDS011;1866;48.374;10.766;2022-11-20T08:49:23;105.60;;;12.07;;
3700;SDS011;1866;48.374;10.766;2022-11-20T08:51:50;104.87;;;11.63;;
3700;SDS011;1866;48.374;10.766;2022-11-20T08:54:20;106.67;;;12.57;;
3700;SDS011;1866;48.374;10.766;2022-11-20T08:56:49;106.47;;;12.10;;
3700;SDS011;1866;48.374;10.766;2022-11-20T08:59:18;105.60;;;11.70;;
3700;SDS011;1866;48.374;10.766;2022-11-20T09:01:45;103.20;;;11.70;;
3700;SDS011;1866;48.374;10.766;2022-11-20T09:04:12;109.23;;;12.27;;
3700;SDS011;1866;48.374;10.766;2022-11-20T09:06:39;107.27;;;13.20;;
3700;SDS011;1866;48.374;10.766;2022-11-20T09:09:06;103.50;;;11.13;;
3700;SDS011;1866;48.374;10.766;2022-11-20T09:11:34;104.90;;;10.97;;
3700;SDS011;1866;48.374;10.766;2022-11-20T09:14:03;103.50;;;11.10;;
3700;SDS011;1866;48.374;10.766;2022-11-20T09:16:31;103.00;;;10.77;;
3700;SDS011;1866;48.374;10.766;2022-11-20T09:18:57;104.57;;;10.90;;
3700;SDS011;1866;48.374;10.766;2022-11-20T09:21:26;104.17;;;11.30;;
3700;SDS011;1866;48.374;10.766;2022-11-20T09:23:53;103.20;;;10.40;;
3700;SDS011;1866;48.374;10.766;2022-11-20T09:26:20;102.40;;;10.90;;
3700;SDS011;1866;48.374;10.766;2022-11-20T09:28:48;102.30;;;9.80;;
3700;SDS011;1866;48.374;10.766;2022-11-20T09:31:19;105.10;;;11.00;;
3700;SDS011;1866;48.374;10.766;2022-11-20T09:33:51;105.33;;;10.90;;
3700;SDS011;1866;48.374;10.766;2022-11-20T09:36:18;104.37;;;10.57;;
3700;SDS011;1866;48.374;10.766;2022-11-20T09:38:45;103.13;;;10.00;;
3700;SDS011;1866;48.374;10.766;2022-11-20T09:41:19;102.57;;;10.10;;
3700;SDS011;1866;48.374;10.766;2022-11-20T09:44:13;103.10;;;10.67;;
3700;SDS011;1866;48.374;10.766;2022-11-20T09:46:57;102.97;;;10.37;;
3700;SDS011;1866;48.374;10.766;2022-11-20T09:49:29;103.47;;;10.17;;
3700;SDS011;1866;48.374;10.766;2022-11-20T09:52:12;104.17;;;10.33;;
3700;SDS011;1866;48.374;10.766;2022-11-20T09:54:50;103.07;;;9.90;;
3700;SDS011;1866;48.374;10.766;2022-11-20T09:57:18;102.87;;;9.33;;
3700;SDS011;1866;48.374;10.766;2022-11-20T09:59:49;113.07;;;12.87;;
3700;SDS011;1866;48.374;10.766;2022-11-20T10:02:24;103.27;;;10.07;;
3700;SDS011;1866;48.374;10.766;2022-11-20T10:04:55;104.00;;;10.67;;
3700;SDS011;1866;48.374;10.766;2022-11-20T10:07:30;103.50;;;10.40;;
3700;SDS011;1866;48.374;10.766;2022-11-20T10:10:13;104.13;;;10.13;;
3700;SDS011;1866;48.374;10.766;2022-11-20T10:12:46;101.83;;;9.40;;
3700;SDS011;1866;48.374;10.766;2022-11-20T10:15:31;102.27;;;9.80;;
3700;SDS011;1866;48.374;10.766;2022-11-20T10:18:06;103.60;;;9.60;;
3700;SDS011;1866;48.374;10.766;2022-11-20T10:20:43;103.10;;;9.53;;
3700;SDS011;1866;48.374;10.766;2022-11-20T10:23:21;100.87;;;9.67;;
3700;SDS011;1866;48.374;10.766;2022-11-20T10:26:00;101.37;;;9.10;;
3700;SDS011;1866;48.374;10.766;2022-11-20T10:28:43;103.00;;;9.43;;
3700;SDS011;1866;48.374;10.766;2022-11-20T10:31:25;100.67;;;8.90;;
3700;SDS011;1866;48.374;10.766;2022-11-20T10:34:01;102.90;;;9.00;;
3700;SDS011;1866;48.374;10.766;2022-11-20T10:36:33;101.17;;;8.37;;
3700;SDS011;1866;48.374;10.766;2022-11-20T10:39:05;102.30;;;8.23;;
3700;SDS011;1866;48.374;10.766;2022-11-20T10:41:39;102.43;;;8.90;;
3700;SDS011;1866;48.374;10.766;2022-11-20T10:44:09;102.27;;;8.17;;
3700;SDS011;1866;48.374;10.766;2022-11-20T10:47:01;100.10;;;7.77;;
3700;SDS011;1866;48.374;10.766;2022-11-20T10:49:31;100.70;;;8.00;;
3700;SDS011;1866;48.374;10.766;2022-11-20T10:52:04;102.90;;;8.27;;
3700;SDS011;1866;48.374;10.766;2022-11-20T10:54:39;100.37;;;7.50;;
3700;SDS011;1866;48.374;10.766;2022-11-20T10:57:15;101.30;;;7.57;;
3700;SDS011;1866;48.374;10.766;2022-11-20T10:59:55;101.20;;;8.23;;
3700;SDS011;1866;48.374;10.766;2022-11-20T11:02:31;101.87;;;8.10;;
3700;SDS011;1866;48.374;10.766;2022-11-20T11:05:07;100.63;;;7.60;;
3700;SDS011;1866;48.374;10.766;2022-11-20T11:07:42;100.47;;;8.13;;
3700;SDS011;1866;48.374;10.766;2022-11-20T11:12:43;101.10;;;8.40;;
3700;SDS011;1866;48.374;10.766;2022-11-20T11:15:14;100.67;;;8.87;;
3700;SDS011;1866;48.374;10.766;2022-11-20T11:17:52;100.50;;;8.47;;
3700;SDS011;1866;48.374;10.766;2022-11-20T11:20:21;101.80;;;8.77;;
3700;SDS011;1866;48.374;10.766;2022-11-20T11:22:50;101.10;;;8.47;;
3700;SDS011;1866;48.374;10.766;2022-11-20T11:25:21;100.63;;;8.37;;
3700;SDS011;1866;48.374;10.766;2022-11-20T11:27:53;100.17;;;8.23;;
3700;SDS011;1866;48.374;10.766;2022-11-20T11:30:22;100.83;;;8.20;;
3700;SDS011;1866;48.374;10.766;2022-11-20T11:32:50;100.40;;;8.00;;
3700;SDS011;1866;48.374;10.766;2022-11-20T11:35:29;101.70;;;8.80;;
3700;SDS011;1866;48.374;10.766;2022-11-20T11:38:02;100.07;;;8.60;;
3700;SDS011;1866;48.374;10.766;2022-11-20T11:40:31;100.10;;;8.30;;
3700;SDS011;1866;48.374;10.766;2022-11-20T11:43:01;100.40;;;8.37;;
3700;SDS011;1866;48.374;10.766;2022-11-20T11:45:30;100.87;;;7.97;;
3700;SDS011;1866;48.374;10.766;2022-11-20T11:47:57;100.50;;;7.73;;
3700;SDS011;1866;48.374;10.766;2022-11-20T11:50:27;101.07;;;8.10;;
3700;SDS011;1866;48.374;10.766;2022-11-20T11:52:58;102.07;;;8.10;;
3700;SDS011;1866;48.374;10.766;2022-11-20T11:55:33;100.83;;;8.30;;
3700;SDS011;1866;48.374;10.766;2022-11-20T11:58:08;100.80;;;8.43;;
3700;SDS011;1866;48.374;10.766;2022-11-20T12:00:41;102.87;;;8.17;;
3700;SDS011;1866;48.374;10.766;2022-11-20T12:03:18;100.47;;;8.17;;
3700;SDS011;1866;48.374;10.766;2022-11-20T12:05:54;100.17;;;8.07;;
3700;SDS011;1866;48.374;10.766;2022-11-20T12:08:26;101.50;;;8.37;;
3700;SDS011;1866;48.374;10.766;2022-11-20T12:10:58;100.47;;;8.43;;
3700;SDS011;1866;48.374;10.766;2022-11-20T12:13:36;100.10;;;8.27;;
3700;SDS011;1866;48.374;10.766;2022-11-20T12:16:10;102.37;;;9.60;;
3700;SDS011;1866;48.374;10.766;2022-11-20T12:18:39;100.37;;;8.67;;
3700;SDS011;1866;48.374;10.766;2022-11-20T12:21:13;99.97;;;8.90;;
3700;SDS011;1866;48.374;10.766;2022-11-20T12:23:54;100.60;;;8.83;;
3700;SDS011;1866;48.374;10.766;2022-11-20T12:26:35;100.00;;;9.03;;
3700;SDS011;1866;48.374;10.766;2022-11-20T12:29:18;100.27;;;8.97;;
3700;SDS011;1866;48.374;10.766;2022-11-20T12:32:03;100.90;;;9.10;;
3700;SDS011;1866;48.374;10.766;2022-11-20T12:34:47;100.57;;;8.77;;
3700;SDS011;1866;48.374;10.766;2022-11-20T12:37:30;100.50;;;9.00;;
3700;SDS011;1866;48.374;10.766;2022-11-20T12:40:08;101.47;;;9.00;;
3700;SDS011;1866;48.374;10.766;2022-11-20T12:42:52;100.80;;;8.90;;
3700;SDS011;1866;48.374;10.766;2022-11-20T12:45:54;101.57;;;8.60;;
3700;SDS011;1866;48.374;10.766;2022-11-20T12:48:37;101.20;;;9.10;;
3700;SDS011;1866;48.374;10.766;2022-11-20T12:51:17;101.17;;;8.77;;
3700;SDS011;1866;48.374;10.766;2022-11-20T12:54:08;100.50;;;9.10;;
3700;SDS011;1866;48.374;10.766;2022-11-20T12:56:52;100.73;;;9.40;;
3700;SDS011;1866;48.374;10.766;2022-11-20T12:59:32;102.57;;;9.00;;
3700;SDS011;1866;48.374;10.766;2022-11-20T13:02:14;100.40;;;8.97;;
3700;SDS011;1866;48.374;10.766;2022-11-20T13:04:57;101.87;;;9.50;;
3700;SDS011;1866;48.374;10.766;2022-11-20T13:07:37;101.07;;;9.30;;
3700;SDS011;1866;48.374;10.766;2022-11-20T13:10:13;101.57;;;9.20;;
3700;SDS011;1866;48.374;10.766;2022-11-20T13:12:49;100.30;;;8.80;;
3700;SDS011;1866;48.374;10.766;2022-11-20T13:18:00;101.20;;;9.10;;
3700;SDS011;1866;48.374;10.766;2022-11-20T13:20:32;101.07;;;9.13;;
3700;SDS011;1866;48.374;10.766;2022-11-20T13:23:01;102.23;;;9.97;;
3700;SDS011;1866;48.374;10.766;2022-11-20T13:25:30;101.40;;;10.33;;
3700;SDS011;1866;48.374;10.766;2022-11-20T13:27:59;101.60;;;10.13;;
3700;SDS011;1866;48.374;10.766;2022-11-20T13:30:27;102.27;;;10.50;;
3700;SDS011;1866;48.374;10.766;2022-11-20T13:32:56;101.50;;;9.63;;
3700;SDS011;1866;48.374;10.766;2022-11-20T13:35:29;102.23;;;9.90;;
3700;SDS011;1866;48.374;10.766;2022-11-20T13:38:03;103.97;;;9.17;;
3700;SDS011;1866;48.374;10.766;2022-11-20T13:40:36;101.30;;;8.57;;
3700;SDS011;1866;48.374;10.766;2022-11-20T13:43:16;103.97;;;9.17;;
3700;SDS011;1866;48.374;10.766;2022-11-20T13:45:54;100.50;;;8.97;;
3700;SDS011;1866;48.374;10.766;2022-11-20T13:48:26;100.67;;;9.20;;
3700;SDS011;1866;48.374;10.766;2022-11-20T13:51:03;99.17;;;8.97;;
3700;SDS011;1866;48.374;10.766;2022-11-20T13:53:48;103.20;;;9.67;;
3700;SDS011;1866;48.374;10.766;2022-11-20T13:56:46;106.27;;;11.57;;
3700;SDS011;1866;48.374;10.766;2022-11-20T13:59:26;108.70;;;13.10;;
3700;SDS011;1866;48.374;10.766;2022-11-20T14:02:03;104.63;;;10.93;;
3700;SDS011;1866;48.374;10.766;2022-11-20T14:04:37;102.67;;;10.47;;
3700;SDS011;1866;48.374;10.766;2022-11-20T14:07:10;104.87;;;11.07;;
3700;SDS011;1866;48.374;10.766;2022-11-20T14:09:38;112.67;;;12.63;;
3700;SDS011;1866;48.374;10.766;2022-11-20T14:12:14;105.13;;;10.23;;
3700;SDS011;1866;48.374;10.766;2022-11-20T14:14:47;102.20;;;9.30;;
3700;SDS011;1866;48.374;10.766;2022-11-20T14:17:18;111.47;;;13.30;;
3700;SDS011;1866;48.374;10.766;2022-11-20T14:19:46;104.07;;;9.83;;
3700;SDS011;1866;48.374;10.766;2022-11-20T14:22:17;100.87;;;8.40;;
3700;SDS011;1866;48.374;10.766;2022-11-20T14:24:45;100.20;;;8.33;;
3700;SDS011;1866;48.374;10.766;2022-11-20T14:27:18;101.83;;;8.80;;
3700;SDS011;1866;48.374;10.766;2022-11-20T14:29:46;101.47;;;8.50;;
3700;SDS011;1866;48.374;10.766;2022-11-20T14:32:21;101.70;;;9.23;;
3700;SDS011;1866;48.374;10.766;2022-11-20T14:34:54;101.30;;;8.23;;
3700;SDS011;1866;48.374;10.766;2022-11-20T14:37:27;100.23;;;8.23;;
3700;SDS011;1866;48.374;10.766;2022-11-20T14:39:58;100.10;;;8.10;;
3700;SDS011;1866;48.374;10.766;2022-11-20T14:42:28;101.10;;;8.50;;
3700;SDS011;1866;48.374;10.766;2022-11-20T14:44:56;100.67;;;8.20;;
3700;SDS011;1866;48.374;10.766;2022-11-20T14:47:25;100.57;;;8.47;;
3700;SDS011;1866;48.374;10.766;2022-11-20T14:49:55;100.50;;;8.20;;
3700;SDS011;1866;48.374;10.766;2022-11-20T14:52:24;100.10;;;7.83;;
3700;SDS011;1866;48.374;10.766;2022-11-20T14:54:53;100.87;;;8.23;;